Terminal Aerodrome Forecast
Issued by NWS

Home | Current Version | Previous Version | Text Only | Print | Product List | Glossary On
Versions: 1 2 3 4 5 6 7 8 9 10 11 12 13
544
FTUS41 KBTV 230521
TAFRUT
TAF
KRUT 230521Z 2306/2406 13005KT P6SM OVC060
     FM231000 13005KT P6SM VCSH OVC060
     FM231400 20008G16KT P6SM VCSH BKN110
     FM240100 22008KT P6SM VCSH OVC020=

USA.gov is the U.S. government's official web portal to all federal, state and local government web resources and services.